Connellys Springs, North Carolina
Current Conditions -  °F | °C
As of 2:53 AM on Saturday 20 Dec 2014 (Local Time) from KHKY Reporting Station
Broken Clouds Broken Clouds  
Wind Chill: 41°   Ceiling: 12000
Heat Index: 41°   Visibility: 10mi
Dew Point: 29°   Wind: 3mph
Humidity: 62%   Direction: 20°NNE
Pressure: 30.17"   Gusts: NA
Location:  35.74°N, 81.51°W
Report Text: KHKY 200753Z AUTO 02003KT 10SM BKN120 05/M02 A3017 RMK AO2 SLP210 T00501017
Loading
Personal Weather Stations






























Interactive Weather Map New forecast layout! Learn more

10-Day Weather Forecast

Advertisements
Track Severe Weather on mobile